Time;durP1;ratioP1;P1;durP2;ratioP2;P2;SDS_P1;SDS_P2;PMS_P1;PMS_P2;Temp;Humidity;BMP_temperature;BMP_pressure;BME280_temperature;BME280_humidity;BME280_pressure;Samples;Min_cycle;Max_cycle;Signal;HPM_P1;HPM_P2
2022/09/02 00:03:38;;;;;;;3.10;2.80;;;21.70;85.40;;;;;;10008521;28;20505;-67
2022/09/02 00:08:33;;;;;;;3.80;3.03;;;21.80;85.10;;;;;;10013551;28;20034;-67
2022/09/02 00:13:23;;;;;;;4.97;3.10;;;21.50;86.40;;;;;;10013059;28;20028;-68
2022/09/02 00:18:16;;;;;;;3.08;2.78;;;21.40;87.00;;;;;;10002167;28;20034;-66
2022/09/02 00:23:07;;;;;;;3.80;3.25;;;21.40;87.60;;;;;;10009120;28;20030;-66
2022/09/02 00:27:58;;;;;;;3.63;3.15;;;21.20;88.80;;;;;;10010123;28;20076;-67
2022/09/02 00:32:49;;;;;;;3.17;2.88;;;21.10;89.80;;;;;;10010678;28;20021;-66
2022/09/02 00:37:40;;;;;;;4.55;3.13;;;21.10;90.10;;;;;;10012664;28;20516;-66
2022/09/02 00:42:30;;;;;;;4.90;3.30;;;21.10;90.30;;;;;;10012639;28;20041;-66
2022/09/02 00:47:21;;;;;;;4.90;3.47;;;20.90;90.70;;;;;;10012026;28;20033;-66
2022/09/02 00:52:23;;;;;;;5.30;2.83;;;21.00;90.90;;;;;;10012531;28;20105;-66
2022/09/02 00:57:18;;;;;;;3.47;2.90;;;21.10;91.00;;;;;;10011975;28;20509;-67
2022/09/02 01:02:10;;;;;;;3.75;3.40;;;21.00;91.10;;;;;;10014980;28;20026;-66
2022/09/02 01:07:02;;;;;;;5.55;3.30;;;21.00;91.50;;;;;;10019539;28;20258;-66
2022/09/02 01:11:53;;;;;;;4.07;3.47;;;20.90;91.70;;;;;;10016348;28;20018;-66
2022/09/02 01:16:54;;;;;;;4.93;3.38;;;20.90;92.00;;;;;;10016272;28;20136;-66
2022/09/02 01:21:47;;;;;;;5.25;3.40;;;20.70;92.50;;;;;;10020127;28;20085;-65
2022/09/02 01:26:38;;;;;;;3.60;3.13;;;20.50;92.90;;;;;;10014768;28;20025;-66
2022/09/02 01:31:29;;;;;;;4.15;3.20;;;20.40;93.10;;;;;;10020145;28;20072;-66
2022/09/02 01:36:20;;;;;;;3.17;2.78;;;20.30;93.50;;;;;;10019943;28;20037;-66
2022/09/02 01:41:10;;;;;;;4.10;3.10;;;20.50;93.30;;;;;;10009531;28;20119;-66
2022/09/02 01:46:01;;;;;;;5.82;3.92;;;20.50;93.50;;;;;;10019317;28;20397;-65
2022/09/02 01:50:56;;;;;;;3.65;3.30;;;20.30;93.90;;;;;;10019796;28;20059;-65
2022/09/02 01:55:47;;;;;;;3.30;2.95;;;20.20;94.00;;;;;;10013907;28;20036;-67
2022/09/02 02:00:38;;;;;;;4.45;3.80;;;20.30;94.00;;;;;;10018145;28;20401;-66
2022/09/02 02:05:30;;;;;;;5.28;3.72;;;20.20;94.10;;;;;;10018537;28;20026;-67
2022/09/02 02:10:21;;;;;;;4.25;3.28;;;20.10;94.40;;;;;;10019189;28;20377;-66
2022/09/02 02:15:17;;;;;;;5.15;4.22;;;20.10;94.40;;;;;;10014027;28;20036;-67
2022/09/02 02:20:09;;;;;;;;;;;20.00;94.60;;;;;;10018421;28;20113;-65
2022/09/02 02:25:00;;;;;;;3.67;3.28;;;19.80;94.80;;;;;;10016091;28;19944;-65
2022/09/02 02:29:51;;;;;;;4.90;3.72;;;19.80;94.80;;;;;;10016829;28;20042;-65
2022/09/02 02:34:42;;;;;;;4.45;3.83;;;19.90;94.80;;;;;;10016043;28;20031;-65
2022/09/02 02:39:33;;;;;;;4.45;3.63;;;19.70;94.90;;;;;;10013398;28;20086;-65
2022/09/02 02:44:24;;;;;;;3.88;3.05;;;19.50;95.30;;;;;;10016505;28;20030;-65
2022/09/02 02:49:14;;;;;;;4.57;3.33;;;19.40;95.60;;;;;;10016136;28;20026;-66
2022/09/02 02:54:06;;;;;;;4.65;3.10;;;19.30;95.90;;;;;;10015407;28;20040;-66
2022/09/02 02:59:01;;;;;;;3.40;2.72;;;19.30;95.80;;;;;;10016082;28;20017;-66
2022/09/02 03:03:53;;;;;;;5.60;3.88;;;19.10;96.20;;;;;;9998268;28;20223;-66
2022/09/02 03:08:43;;;;;;;4.85;3.42;;;19.00;96.40;;;;;;10013601;28;20030;-66
2022/09/02 03:13:34;;;;;;;3.60;3.30;;;19.00;96.40;;;;;;9998045;28;20022;-66
2022/09/02 03:18:25;;;;;;;4.95;3.90;;;19.10;96.40;;;;;;10007783;28;20057;-66
2022/09/02 03:23:17;;;;;;;6.07;2.97;;;19.00;96.40;;;;;;10012860;28;20021;-66
2022/09/02 03:28:08;;;;;;;4.03;2.70;;;19.00;96.40;;;;;;10014634;28;20520;-66
2022/09/02 03:32:59;;;;;;;8.30;3.25;;;19.10;96.50;;;;;;10011273;28;20034;-67
2022/09/02 03:37:51;;;;;;;6.93;3.00;;;19.10;96.50;;;;;;10014450;28;20052;-67
2022/09/02 03:42:42;;;;;;;4.07;3.28;;;19.00;96.70;;;;;;9996447;28;20393;-66
2022/09/02 03:47:33;;;;;;;4.90;3.38;;;19.00;96.70;;;;;;10014036;28;20045;-66
2022/09/02 03:52:25;;;;;;;5.35;4.32;;;18.90;96.80;;;;;;10014357;28;20552;-67
2022/09/02 03:57:16;;;;;;;4.38;3.40;;;18.60;97.00;;;;;;10013595;28;20064;-66
2022/09/02 04:02:07;;;;;;;3.63;3.30;;;18.60;97.20;;;;;;10009330;28;20735;-66
2022/09/02 04:06:58;;;;;;;5.50;4.18;;;18.60;97.10;;;;;;10013621;28;20053;-66
2022/09/02 04:11:49;;;;;;;4.93;3.47;;;18.60;97.00;;;;;;10014191;28;20026;-66
2022/09/02 04:16:40;;;;;;;7.68;3.72;;;18.70;97.10;;;;;;10001442;28;20057;-66
2022/09/02 04:21:32;;;;;;;4.35;3.30;;;18.60;97.20;;;;;;10013502;28;20026;-66
2022/09/02 04:26:23;;;;;;;4.75;3.47;;;18.60;97.20;;;;;;10006996;28;20030;-67
2022/09/02 04:31:17;;;;;;;4.53;4.10;;;18.40;97.40;;;;;;10013357;28;20034;-66
2022/09/02 04:36:11;;;;;;;3.95;3.00;;;18.40;97.50;;;;;;10013754;28;20037;-66
2022/09/02 04:41:10;;;;;;;5.00;3.53;;;18.20;97.60;;;;;;10013846;28;20061;-66
2022/09/02 04:46:04;;;;;;;5.53;3.58;;;18.30;97.50;;;;;;10008992;28;20329;-66
2022/09/02 04:50:55;;;;;;;3.88;3.15;;;18.40;97.50;;;;;;10012850;28;20034;-66
2022/09/02 04:55:46;;;;;;;4.00;3.42;;;18.30;97.60;;;;;;10013589;28;20041;-66
2022/09/02 05:00:39;;;;;;;3.95;2.85;;;18.20;97.60;;;;;;10014247;28;20061;-67
2022/09/02 05:05:29;;;;;;;4.22;3.50;;;18.20;97.60;;;;;;10011470;28;20113;-66
2022/09/02 05:10:20;;;;;;;4.10;3.22;;;18.20;97.70;;;;;;10010656;28;20149;-66
2022/09/02 05:15:11;;;;;;;4.50;3.15;;;17.90;97.90;;;;;;10011154;28;20049;-65
2022/09/02 05:20:05;;;;;;;4.50;3.53;;;18.00;97.90;;;;;;10011567;28;20025;-66
2022/09/02 05:24:56;;;;;;;4.68;3.10;;;18.00;97.70;;;;;;10006143;28;20042;-66
2022/09/02 05:29:47;;;;;;;4.78;3.13;;;18.10;97.60;;;;;;10010684;28;20034;-66
2022/09/02 05:34:37;;;;;;;5.97;3.30;;;18.20;97.50;;;;;;10012178;28;20040;-65
2022/09/02 05:39:29;;;;;;;4.63;3.03;;;18.10;97.70;;;;;;10004433;28;20439;-66
2022/09/02 05:44:20;;;;;;;3.50;2.92;;;18.10;97.70;;;;;;9993114;28;20350;-66
2022/09/02 05:49:16;;;;;;;4.75;2.97;;;18.00;97.80;;;;;;10017191;28;20024;-66
2022/09/02 05:54:10;;;;;;;3.13;2.75;;;18.00;97.80;;;;;;10013172;28;20078;-66
2022/09/02 05:59:01;;;;;;;5.35;3.00;;;18.00;97.80;;;;;;10019016;28;20028;-66
2022/09/02 06:03:51;;;;;;;3.13;2.53;;;18.00;97.90;;;;;;10018705;28;20392;-66
2022/09/02 06:08:42;;;;;;;5.50;3.05;;;18.00;97.80;;;;;;10016592;28;20428;-66
2022/09/02 06:13:35;;;;;;;3.88;2.83;;;17.90;98.00;;;;;;10018237;28;20026;-66
2022/09/02 06:18:26;;;;;;;4.07;3.53;;;18.00;97.80;;;;;;10008895;28;20052;-66
2022/09/02 06:23:17;;;;;;;3.83;3.08;;;18.10;97.80;;;;;;10015098;28;20369;-66
2022/09/02 06:28:07;;;;;;;4.80;3.40;;;18.10;97.80;;;;;;10016775;28;20025;-67
2022/09/02 06:32:58;;;;;;;5.45;4.03;;;18.00;97.90;;;;;;10017384;28;20032;-67
2022/09/02 06:37:49;;;;;;;11.35;5.22;;;18.10;97.80;;;;;;10014861;28;20408;-66
2022/09/02 06:42:40;;;;;;;4.25;3.00;;;18.30;97.70;;;;;;10017061;28;20026;-67
2022/09/02 06:47:31;;;;;;;4.63;2.80;;;18.50;97.60;;;;;;10016366;28;20034;-67
2022/09/02 06:52:21;;;;;;;6.40;2.67;;;18.70;97.30;;;;;;10012885;28;20022;-66
2022/09/02 06:57:13;;;;;;;6.18;3.47;;;18.70;97.30;;;;;;10016898;28;20037;-67
2022/09/02 07:02:04;;;;;;;6.47;3.45;;;18.80;97.40;;;;;;9997519;28;20064;-67
2022/09/02 07:06:54;;;;;;;6.32;4.68;;;18.80;97.20;;;;;;10010812;28;20156;-65
2022/09/02 07:11:47;;;;;;;5.40;3.65;;;19.10;97.00;;;;;;10016157;28;20145;-65
2022/09/02 07:16:43;;;;;;;4.00;3.05;;;19.20;96.90;;;;;;10011964;28;20041;-66
2022/09/02 07:21:35;;;;;;;4.75;3.28;;;19.20;96.90;;;;;;10010846;28;20022;-65
2022/09/02 07:26:27;;;;;;;16.63;9.02;;;19.30;96.80;;;;;;10014399;28;20033;-66
2022/09/02 07:31:18;;;;;;;6.40;4.07;;;19.40;96.80;;;;;;10013775;28;20014;-66
2022/09/02 07:36:09;;;;;;;4.38;3.08;;;19.50;96.70;;;;;;10014466;28;20052;-66
2022/09/02 07:41:01;;;;;;;4.97;3.08;;;19.70;96.50;;;;;;9997302;28;20128;-66
2022/09/02 07:45:54;;;;;;;2.80;2.50;;;19.70;96.40;;;;;;10009047;28;20053;-67
2022/09/02 07:50:46;;;;;;;4.53;2.22;;;19.90;96.30;;;;;;9996587;28;20018;-66
2022/09/02 07:55:39;;;;;;;3.42;2.50;;;20.10;95.90;;;;;;10014615;28;20030;-67
2022/09/02 08:00:31;;;;;;;6.82;3.10;;;20.40;95.60;;;;;;10007055;28;20017;-68
2022/09/02 08:05:22;;;;;;;5.82;3.30;;;20.30;95.60;;;;;;10014490;28;20094;-66
2022/09/02 08:10:15;;;;;;;3.80;2.83;;;20.40;95.60;;;;;;10014266;28;20034;-67
2022/09/02 08:15:08;;;;;;;4.82;2.97;;;20.60;95.30;;;;;;10009223;28;20041;-66
2022/09/02 08:19:59;;;;;;;3.83;2.20;;;20.80;95.10;;;;;;10013695;28;20467;-66
2022/09/02 08:24:49;;;;;;;6.88;3.00;;;20.70;95.10;;;;;;10013001;28;20064;-65
2022/09/02 08:29:40;;;;;;;2.92;2.72;;;20.80;95.00;;;;;;10012611;28;20033;-66
2022/09/02 08:34:31;;;;;;;2.58;2.38;;;20.90;94.90;;;;;;10013159;28;20030;-66
2022/09/02 08:39:21;;;;;;;5.20;2.85;;;21.00;94.70;;;;;;10012509;28;20462;-66
2022/09/02 08:44:20;;;;;;;3.15;2.63;;;21.10;94.60;;;;;;10000496;28;20029;-66
2022/09/02 08:49:25;;;;;;;4.07;2.00;;;21.20;94.40;;;;;;10012567;28;20486;-67
2022/09/02 08:54:32;;;;;;;4.47;2.15;;;21.30;94.20;;;;;;10012457;28;20033;-66
2022/09/02 08:59:26;;;;;;;7.68;2.95;;;21.40;94.10;;;;;;10010594;28;20034;-67
2022/09/02 09:04:55;;;;;;;4.45;1.70;;;21.50;93.80;;;;;;10013005;28;20029;-67
2022/09/02 09:09:59;;;;;;;4.13;1.85;;;21.50;93.60;;;;;;10008652;28;20068;-66
2022/09/02 09:14:56;;;;;;;2.25;1.80;;;21.70;93.50;;;;;;10008938;28;20152;-66
2022/09/02 09:19:53;;;;;;;1.90;1.40;;;22.00;93.00;;;;;;10013271;28;20017;-67
2022/09/02 09:24:48;;;;;;;3.85;1.55;;;22.00;92.70;;;;;;10012784;28;20030;-68
2022/09/02 09:29:39;;;;;;;3.70;2.00;;;22.20;92.30;;;;;;10020323;28;20034;-67
2022/09/02 09:35:06;;;;;;;1.95;1.42;;;22.30;92.00;;;;;;10020228;28;20118;-67
2022/09/02 09:39:57;;;;;;;3.40;1.73;;;22.20;91.60;;;;;;9992970;28;20049;-67
2022/09/02 09:44:48;;;;;;;2.63;1.52;;;22.20;91.40;;;;;;10020316;28;20324;-66
2022/09/02 09:49:39;;;;;;;1.75;1.45;;;22.40;91.20;;;;;;10019718;28;20045;-66
2022/09/02 09:54:30;;;;;;;2.08;1.52;;;22.50;90.80;;;;;;10011909;28;20080;-66
2022/09/02 09:59:41;;;;;;;6.43;1.35;;;22.60;90.70;;;;;;10001276;28;20034;-66
2022/09/02 10:04:33;;;;;;;2.55;1.95;;;22.90;90.00;;;;;;10012674;28;20030;-66
2022/09/02 10:09:30;;;;;;;2.20;1.45;;;23.00;89.70;;;;;;10010467;28;20714;-67
2022/09/02 10:14:22;;;;;;;1.92;1.35;;;23.10;88.90;;;;;;10014979;28;20449;-67
2022/09/02 10:19:18;;;;;;;3.05;1.30;;;23.20;88.30;;;;;;10017577;28;20160;-65
2022/09/02 10:24:39;;;;;;;2.30;1.30;;;23.30;87.50;;;;;;10011185;28;20036;-65
2022/09/02 10:29:36;;;;;;;1.17;1.02;;;23.50;86.90;;;;;;10015040;28;20021;-66
2022/09/02 10:34:46;;;;;;;3.05;1.17;;;23.70;86.20;;;;;;10016683;28;20570;-66
2022/09/02 10:40:04;;;;;;;1.17;1.08;;;23.70;85.20;;;;;;10005279;28;20042;-67
2022/09/02 10:45:12;;;;;;;2.58;1.45;;;23.80;84.90;;;;;;10007188;28;20034;-65
2022/09/02 10:50:34;;;;;;;1.88;1.30;;;23.90;84.50;;;;;;10014814;28;20033;-66
2022/09/02 10:55:43;;;;;;;1.48;1.20;;;24.00;83.50;;;;;;10015913;28;20034;-66
2022/09/02 11:00:39;;;;;;;3.15;0.90;;;24.10;83.30;;;;;;10016499;28;20022;-66
2022/09/02 11:06:03;;;;;;;3.10;1.58;;;24.00;83.00;;;;;;10013699;28;20109;-65
2022/09/02 11:10:57;;;;;;;2.30;1.30;;;24.00;82.20;;;;;;10009363;28;20030;-66
2022/09/02 11:16:01;;;;;;;1.77;1.48;;;24.20;81.80;;;;;;10012628;28;20037;-66
2022/09/02 11:21:07;;;;;;;2.63;1.20;;;24.20;81.10;;;;;;10015405;28;20065;-65
2022/09/02 11:26:06;;;;;;;2.85;1.10;;;24.30;80.50;;;;;;10010620;28;20070;-68
2022/09/02 11:31:16;;;;;;;3.33;1.70;;;24.30;79.60;;;;;;10007353;28;20028;-65
2022/09/02 11:36:06;;;;;;;2.40;1.00;;;24.50;79.00;;;;;;10013619;28;20104;-64
2022/09/02 11:41:19;;;;;;;1.52;0.90;;;24.70;78.90;;;;;;10014665;28;20115;-64
2022/09/02 11:46:15;;;;;;;1.83;1.25;;;25.00;77.00;;;;;;10010928;28;20033;-65
2022/09/02 11:51:48;;;;;;;1.58;1.10;;;24.90;76.80;;;;;;10013925;28;20038;-67
2022/09/02 11:56:50;;;;;;;1.35;0.90;;;25.00;75.40;;;;;;10002129;28;20435;-64
2022/09/02 12:01:55;;;;;;;1.52;1.08;;;25.00;74.90;;;;;;10013216;28;20029;-65
2022/09/02 12:07:07;;;;;;;2.03;1.23;;;25.20;74.20;;;;;;10009530;28;20129;-66
2022/09/02 12:11:57;;;;;;;3.17;1.17;;;25.30;72.40;;;;;;10012675;28;20033;-66
2022/09/02 12:17:04;;;;;;;5.18;1.80;;;25.40;72.90;;;;;;9999351;28;20038;-65
2022/09/02 12:22:16;;;;;;;1.67;1.33;;;25.80;71.50;;;;;;10009410;28;20097;-65
2022/09/02 12:27:10;;;;;;;2.47;1.13;;;26.10;70.40;;;;;;10007338;28;20041;-66
2022/09/02 12:32:01;;;;;;;2.60;1.03;;;26.30;69.90;;;;;;10009133;28;20105;-65
2022/09/02 12:37:02;;;;;;;2.22;1.10;;;26.70;69.60;;;;;;10012845;28;20120;-65
2022/09/02 12:42:11;;;;;;;1.95;1.27;;;27.00;69.10;;;;;;10013661;28;20061;-65
2022/09/02 12:47:12;;;;;;;2.00;0.85;;;27.40;67.00;;;;;;10013417;28;20026;-65
2022/09/02 12:52:08;;;;;;;1.58;1.10;;;27.60;66.20;;;;;;10013194;28;20037;-65
2022/09/02 12:56:59;;;;;;;1.30;1.00;;;28.10;66.50;;;;;;10013325;28;20053;-64
2022/09/02 13:02:15;;;;;;;2.10;1.17;;;28.30;65.80;;;;;;10020898;28;20018;-65
2022/09/02 13:07:09;;;;;;;1.65;0.90;;;28.90;64.60;;;;;;10021093;28;20080;-65
2022/09/02 13:12:29;;;;;;;4.63;1.00;;;29.50;64.90;;;;;;10019990;28;20030;-65
2022/09/02 13:17:44;;;;;;;1.20;0.90;;;30.10;62.40;;;;;;10009729;28;20298;-65
2022/09/02 13:22:55;;;;;;;1.33;1.20;;;31.00;62.00;;;;;;10013451;28;20532;-65
2022/09/02 13:28:05;;;;;;;2.03;1.73;;;32.00;59.60;;;;;;10014701;28;20072;-64
2022/09/02 13:33:04;;;;;;;1.58;1.40;;;32.70;58.60;;;;;;10017585;28;20144;-65
2022/09/02 13:37:59;;;;;;;1.95;1.00;;;33.50;56.00;;;;;;10009812;28;20061;-65
2022/09/02 13:43:01;;;;;;;2.40;2.10;;;33.60;53.90;;;;;;10019700;28;20017;-66
2022/09/02 13:47:57;;;;;;;2.05;1.00;;;34.60;51.70;;;;;;10018616;28;20823;-65
2022/09/02 13:52:56;;;;;;;1.30;1.00;;;35.00;50.20;;;;;;10015414;28;20065;-65
2022/09/02 13:57:54;;;;;;;0.80;0.80;;;35.80;49.00;;;;;;10017136;28;20419;-65
2022/09/02 14:03:02;;;;;;;1.17;1.00;;;35.40;47.60;;;;;;10018276;28;20103;-66
2022/09/02 14:07:56;;;;;;;3.42;1.38;;;35.70;46.90;;;;;;10016593;28;20018;-64
2022/09/02 14:12:47;;;;;;;1.55;1.10;;;36.00;46.30;;;;;;10017925;28;20096;-65
2022/09/02 14:17:38;;;;;;;1.45;1.35;;;34.90;45.60;;;;;;10014771;28;20579;-65
2022/09/02 14:22:29;;;;;;;0.88;0.88;;;35.30;45.20;;;;;;10015276;28;20113;-65
2022/09/02 14:27:22;;;;;;;0.85;0.80;;;35.60;44.60;;;;;;10013811;28;20068;-65
2022/09/02 14:32:19;;;;;;;2.00;0.90;;;35.30;44.20;;;;;;10017364;28;20026;-65
2022/09/02 14:37:28;;;;;;;1.77;1.38;;;34.80;43.70;;;;;;10016436;28;20708;-65
2022/09/02 14:42:19;;;;;;;2.25;0.90;;;33.50;43.60;;;;;;10017004;28;20042;-65
2022/09/02 14:47:14;;;;;;;1.40;1.30;;;33.00;44.20;;;;;;10016811;28;20435;-66
2022/09/02 14:52:15;;;;;;;0.98;0.90;;;33.20;43.70;;;;;;9997874;28;20546;-65
2022/09/02 14:57:27;;;;;;;1.27;0.98;;;32.90;43.40;;;;;;10016399;28;20180;-66
2022/09/02 15:02:23;;;;;;;1.75;0.88;;;32.70;43.20;;;;;;10010813;28;20510;-65
2022/09/02 15:07:13;;;;;;;2.78;1.45;;;32.40;43.40;;;;;;10015877;28;20700;-65
2022/09/02 15:12:04;;;;;;;1.42;1.15;;;31.80;43.70;;;;;;10017095;28;20364;-65
2022/09/02 15:16:56;;;;;;;1.15;0.95;;;31.50;43.80;;;;;;9995725;28;20036;-65
2022/09/02 15:21:47;;;;;;;1.05;0.90;;;31.00;44.10;;;;;;10016276;28;20083;-64
2022/09/02 15:26:38;;;;;;;1.58;0.98;;;30.60;44.30;;;;;;10015404;28;20025;-66
2022/09/02 15:31:28;;;;;;;1.40;1.10;;;30.30;44.70;;;;;;10013513;28;20033;-66
2022/09/02 15:36:20;;;;;;;1.58;1.10;;;31.30;44.30;;;;;;10014411;28;20037;-65
2022/09/02 15:41:12;;;;;;;1.90;1.35;;;33.20;43.30;;;;;;10014593;28;20054;-66
2022/09/02 15:46:03;;;;;;;1.65;1.50;;;34.50;42.80;;;;;;10002725;28;20088;-66
2022/09/02 15:50:53;;;;;;;2.00;1.25;;;35.60;42.20;;;;;;10008287;28;20073;-66
2022/09/02 15:55:44;;;;;;;2.00;0.90;;;36.20;41.80;;;;;;10008381;28;20448;-64
2022/09/02 16:00:34;;;;;;;1.25;1.10;;;37.20;41.00;;;;;;10007812;28;20022;-67
2022/09/02 16:05:25;;;;;;;1.67;1.10;;;35.20;41.70;;;;;;9996265;28;20621;-68
2022/09/02 16:10:16;;;;;;;1.95;1.08;;;32.40;43.00;;;;;;10014053;28;20033;-65
2022/09/02 16:15:08;;;;;;;1.20;0.95;;;30.60;43.80;;;;;;10007091;28;20040;-65
2022/09/02 16:19:59;;;;;;;3.25;1.25;;;30.00;43.90;;;;;;10013896;28;20037;-65
2022/09/02 16:24:50;;;;;;;2.95;1.33;;;29.50;44.30;;;;;;10013178;28;20040;-65
2022/09/02 16:29:41;;;;;;;2.90;1.50;;;29.10;44.60;;;;;;10010058;28;20436;-64
2022/09/02 16:34:31;;;;;;;1.20;1.08;;;28.80;44.90;;;;;;10013070;28;20053;-64
2022/09/02 16:39:23;;;;;;;1.50;1.10;;;28.60;45.20;;;;;;10013282;28;20667;-66
2022/09/02 16:44:16;;;;;;;1.42;1.23;;;28.60;45.30;;;;;;10012956;28;20300;-64
2022/09/02 16:49:09;;;;;;;2.23;0.90;;;28.40;45.90;;;;;;10014024;28;20041;-65
2022/09/02 16:54:03;;;;;;;1.77;1.05;;;28.10;46.50;;;;;;10001594;28;20448;-65
2022/09/02 16:58:54;;;;;;;2.28;1.23;;;27.90;47.00;;;;;;10014410;28;20044;-64
2022/09/02 17:03:45;;;;;;;1.65;1.23;;;27.90;47.30;;;;;;10013394;28;20109;-65
2022/09/02 17:08:36;;;;;;;1.50;1.40;;;27.90;47.50;;;;;;9993132;28;20041;-66
2022/09/02 17:13:26;;;;;;;2.38;1.30;;;27.70;48.00;;;;;;10013246;28;20033;-64
2022/09/02 17:18:17;;;;;;;3.05;1.27;;;27.80;48.10;;;;;;10009320;28;20041;-64
2022/09/02 17:23:08;;;;;;;1.45;1.27;;;27.70;48.40;;;;;;9988199;28;20061;-65
2022/09/02 17:27:58;;;;;;;2.10;1.52;;;27.60;48.60;;;;;;10011877;28;20080;-65
2022/09/02 17:32:50;;;;;;;1.08;0.98;;;27.40;48.90;;;;;;10012331;28;20384;-65
2022/09/02 17:37:40;;;;;;;2.88;1.77;;;27.20;49.20;;;;;;10007608;28;20054;-65
2022/09/02 17:42:32;;;;;;;2.58;1.55;;;27.20;49.30;;;;;;10013124;28;20400;-64
2022/09/02 17:47:24;;;;;;;5.85;1.80;;;27.10;49.50;;;;;;10018871;28;20439;-65
2022/09/02 17:52:22;;;;;;;3.60;1.50;;;27.00;49.50;;;;;;10005507;28;20109;-65
2022/09/02 17:57:47;;;;;;;5.35;1.88;;;26.90;49.60;;;;;;10018825;28;20483;-65
2022/09/02 18:02:41;;;;;;;2.90;2.20;;;26.60;51.10;;;;;;10019637;28;20014;-65
2022/09/02 18:07:37;;;;;;;5.15;1.95;;;26.10;51.80;;;;;;10011329;28;20492;-65
2022/09/02 18:12:28;;;;;;;2.17;1.58;;;25.80;52.80;;;;;;10017664;28;20507;-65
2022/09/02 18:17:32;;;;;;;2.80;1.88;;;25.60;53.70;;;;;;10014278;28;20128;-65
2022/09/02 18:22:41;;;;;;;2.50;2.00;;;25.50;54.80;;;;;;10000700;28;20044;-65
2022/09/02 18:27:50;;;;;;;2.58;1.95;;;25.40;55.50;;;;;;10005056;28;20034;-65
2022/09/02 18:32:41;;;;;;;4.75;2.42;;;25.30;56.40;;;;;;10005229;28;20025;-65
2022/09/02 18:38:06;;;;;;;3.35;1.70;;;25.00;56.80;;;;;;10017304;28;20069;-65
2022/09/02 18:43:11;;;;;;;1.97;1.30;;;25.00;57.90;;;;;;10012147;28;20032;-65
2022/09/02 18:48:11;;;;;;;2.28;1.52;;;25.00;57.60;;;;;;10010498;28;20030;-66
2022/09/02 18:53:03;;;;;;;2.13;1.58;;;25.20;57.90;;;;;;10003309;28;20030;-66
2022/09/02 18:57:57;;;;;;;3.00;1.83;;;25.20;58.00;;;;;;9998579;28;20230;-65
2022/09/02 19:03:00;;;;;;;2.20;1.83;;;25.30;58.40;;;;;;10005829;28;20026;-65
2022/09/02 19:08:28;;;;;;;5.45;1.60;;;25.10;59.10;;;;;;10016679;28;20045;-64
2022/09/02 19:13:19;;;;;;;3.28;1.10;;;25.10;59.50;;;;;;10008683;28;20409;-65
2022/09/02 19:18:09;;;;;;;1.95;1.17;;;25.00;59.70;;;;;;10012191;28;20097;-65
2022/09/02 19:23:04;;;;;;;2.60;1.55;;;25.00;60.10;;;;;;10008689;28;20041;-64
2022/09/02 19:27:55;;;;;;;1.42;0.98;;;25.00;60.20;;;;;;10008095;28;20026;-65
2022/09/02 19:32:50;;;;;;;2.90;0.95;;;24.80;60.90;;;;;;10007667;28;20041;-65
2022/09/02 19:37:45;;;;;;;3.37;2.63;;;24.90;61.10;;;;;;10014103;28;20038;-65
2022/09/02 19:42:36;;;;;;;2.63;1.23;;;24.80;61.60;;;;;;10013195;28;20261;-65
2022/09/02 19:47:27;;;;;;;2.70;1.20;;;24.90;61.90;;;;;;10009969;28;20030;-65
2022/09/02 19:52:19;;;;;;;3.97;1.50;;;24.80;62.40;;;;;;10002703;28;20026;-64
2022/09/02 19:57:10;;;;;;;2.55;1.23;;;24.80;62.60;;;;;;9994293;28;20209;-65
2022/09/02 20:02:03;;;;;;;2.53;1.42;;;24.70;63.00;;;;;;10014473;28;20219;-65
2022/09/02 20:06:54;;;;;;;3.35;1.27;;;24.60;63.30;;;;;;9993728;28;20038;-65
2022/09/02 20:11:45;;;;;;;2.72;1.40;;;24.50;63.60;;;;;;10007769;28;20064;-65
2022/09/02 20:16:35;;;;;;;1.85;1.20;;;24.30;64.90;;;;;;10012172;28;20065;-64
2022/09/02 20:21:30;;;;;;;1.55;0.95;;;24.30;64.40;;;;;;10013033;28;20029;-65
2022/09/02 20:26:30;;;;;;;2.93;1.30;;;24.20;64.90;;;;;;10012144;28;20037;-65
2022/09/02 20:31:35;;;;;;;2.72;1.40;;;24.20;65.20;;;;;;10012339;28;20038;-65
2022/09/02 20:36:46;;;;;;;2.03;1.33;;;23.90;65.80;;;;;;10012296;28;20045;-65
2022/09/02 20:42:03;;;;;;;3.08;1.52;;;23.80;66.30;;;;;;10010990;28;20050;-65
2022/09/02 20:47:11;;;;;;;1.95;1.40;;;23.70;66.90;;;;;;9994459;28;20080;-65
2022/09/02 20:52:24;;;;;;;2.95;1.52;;;23.70;68.50;;;;;;10000594;28;20080;-65
2022/09/02 20:57:18;;;;;;;3.75;2.20;;;23.70;68.60;;;;;;10007679;28;20026;-65
2022/09/02 21:02:15;;;;;;;2.33;1.50;;;23.60;68.80;;;;;;10012237;28;20036;-65
2022/09/02 21:07:13;;;;;;;2.40;1.60;;;23.40;69.70;;;;;;10011083;28;20056;-65
2022/09/02 21:12:17;;;;;;;3.78;2.08;;;23.40;71.20;;;;;;10011764;28;20148;-66
2022/09/02 21:17:13;;;;;;;2.60;1.60;;;23.20;72.50;;;;;;10010481;28;20038;-65
2022/09/02 21:22:26;;;;;;;3.22;2.28;;;23.00;73.70;;;;;;10018484;28;20109;-66
2022/09/02 21:27:32;;;;;;;2.67;1.67;;;23.00;75.20;;;;;;10018771;28;20064;-64
2022/09/02 21:32:33;;;;;;;2.42;1.63;;;23.00;75.50;;;;;;10016738;28;20449;-64
2022/09/02 21:37:28;;;;;;;2.92;1.83;;;23.00;76.20;;;;;;10012827;28;20050;-64
2022/09/02 21:42:39;;;;;;;3.15;1.83;;;22.80;77.20;;;;;;10014927;28;20109;-66
2022/09/02 21:48:15;;;;;;;1.52;1.42;;;22.90;78.30;;;;;;10018274;28;20030;-65
2022/09/02 21:53:22;;;;;;;3.40;1.92;;;22.80;79.60;;;;;;9997494;28;20030;-65
2022/09/02 21:58:16;;;;;;;6.18;1.80;;;22.90;79.80;;;;;;10000620;28;20029;-65
2022/09/02 22:03:28;;;;;;;3.33;1.27;;;23.00;80.00;;;;;;10016142;28;20088;-64
2022/09/02 22:08:28;;;;;;;2.35;1.73;;;22.80;81.90;;;;;;10017799;28;20457;-65
2022/09/02 22:13:19;;;;;;;4.25;2.13;;;22.80;82.40;;;;;;10016948;28;20025;-64
2022/09/02 22:18:31;;;;;;;2.85;1.77;;;22.70;83.30;;;;;;10010730;28;20029;-65
2022/09/02 22:23:25;;;;;;;2.00;1.70;;;22.70;84.60;;;;;;10017087;28;20036;-65
2022/09/02 22:28:29;;;;;;;4.20;1.90;;;22.60;85.50;;;;;;10016268;28;20028;-65
2022/09/02 22:33:26;;;;;;;2.40;1.33;;;22.60;86.40;;;;;;10016580;28;20400;-64
2022/09/02 22:38:25;;;;;;;4.43;2.00;;;22.50;87.50;;;;;;10016902;28;20416;-65
2022/09/02 22:43:21;;;;;;;2.22;1.50;;;22.60;88.00;;;;;;10017072;28;20354;-64
2022/09/02 22:53:31;;;;;;;2.83;1.70;;;22.40;90.00;;;;;;9997268;28;20036;-65
2022/09/02 22:58:43;;;;;;;3.45;2.42;;;22.20;90.50;;;;;;10017297;28;20028;-65
2022/09/02 23:04:00;;;;;;;2.67;1.98;;;22.30;90.80;;;;;;9998190;28;20567;-65
2022/09/02 23:08:50;;;;;;;3.40;1.83;;;22.30;91.20;;;;;;10009549;28;20050;-64
2022/09/02 23:14:05;;;;;;;2.60;1.67;;;22.30;91.30;;;;;;10013369;28;20496;-65
2022/09/02 23:19:10;;;;;;;2.72;1.92;;;22.20;91.80;;;;;;9997320;28;20470;-64
2022/09/02 23:24:54;;;;;;;2.50;1.50;;;22.20;92.10;;;;;;9998146;28;20060;-65
2022/09/02 23:29:53;;;;;;;2.97;1.73;;;22.10;92.50;;;;;;9897689;28;20033;-65
2022/09/02 23:35:10;;;;;;;2.50;1.48;;;22.00;92.70;;;;;;9998394;28;20030;-65
2022/09/02 23:40:30;;;;;;;3.65;1.88;;;21.80;93.20;;;;;;9995392;28;20065;-66
2022/09/02 23:45:22;;;;;;;2.38;1.63;;;21.60;93.50;;;;;;10009207;28;20449;-65
2022/09/02 23:50:45;;;;;;;2.45;2.05;;;21.70;93.70;;;;;;10004636;28;20520;-65
2022/09/02 23:55:54;;;;;;;4.28;1.85;;;21.80;94.00;;;;;;10006565;28;20025;-65
